Time;durP1;ratioP1;P1;durP2;ratioP2;P2;SDS_P1;SDS_P2;PMS_P1;PMS_P2;Temp;Humidity;BMP_temperature;BMP_pressure;BME280_temperature;BME280_humidity;BME280_pressure;Samples;Min_cycle;Max_cycle;Signal;HPM_P1;HPM_P2
2022/09/11 00:05:01;;;;;;;13.80;10.00;;;;;;;14.47;80.93;98140.96;433230;1269;108800;-40
2022/09/11 00:15:09;;;;;;;14.00;11.70;;;;;;;14.45;80.96;98139.73;432426;1270;99952;-40
2022/09/11 00:25:15;;;;;;;14.50;11.50;;;;;;;14.36;81.11;98133.25;432668;1270;112453;-39
2022/09/11 00:35:23;;;;;;;20.60;13.90;;;;;;;14.44;81.33;98126.58;432355;1270;108853;-40
2022/09/11 00:45:31;;;;;;;13.60;11.40;;;;;;;14.40;81.24;98124.96;432714;1270;99249;-40
2022/09/11 00:55:41;;;;;;;14.00;10.20;;;;;;;14.38;81.26;98122.02;433087;1271;108889;-41
2022/09/11 01:05:51;;;;;;;13.60;10.50;;;;;;;14.33;81.24;98126.34;433073;1271;99232;-40
2022/09/11 01:16:02;;;;;;;12.50;10.20;;;;;;;14.32;81.58;98118.20;432461;1270;112139;-40
2022/09/11 01:26:17;;;;;;;15.70;9.10;;;;;;;14.34;81.59;98116.50;433090;1261;107654;-40
2022/09/11 01:46:39;;;;;;;14.80;10.80;;;;;;;14.25;81.73;98114.54;432677;1271;108878;-40
2022/09/11 01:56:52;;;;;;;12.30;10.10;;;;;;;14.16;81.71;98113.62;432335;1270;99241;-40
2022/09/11 02:07:06;;;;;;;15.30;10.70;;;;;;;14.18;81.89;98108.89;432931;1271;112257;-40
2022/09/11 02:17:11;;;;;;;10.20;9.10;;;;;;;14.21;82.03;98103.11;432313;1270;108832;-40
2022/09/11 02:47:41;;;;;;;9.20;7.80;;;;;;;14.05;82.06;98088.15;432689;1271;99396;-39
2022/09/11 02:57:47;;;;;;;13.20;9.40;;;;;;;13.98;82.26;98085.34;432925;1269;112615;-39
2022/09/11 03:18:01;;;;;;;15.10;10.90;;;;;;;14.03;82.46;98084.33;432756;1270;99034;-40
2022/09/11 03:28:08;;;;;;;16.10;11.90;;;;;;;14.04;82.71;98077.41;432603;1270;108807;-40
2022/09/11 03:38:16;;;;;;;15.80;11.80;;;;;;;14.01;82.68;98081.98;432553;1270;98844;-40
2022/09/11 03:58:30;;;;;;;17.70;13.70;;;;;;;14.08;82.92;98086.19;432505;1270;108960;-39
2022/09/11 04:08:40;;;;;;;17.10;13.60;;;;;;;14.04;82.80;98086.39;432909;1270;99241;-39
2022/09/11 04:28:56;;;;;;;12.60;10.70;;;;;;;14.02;83.06;98089.64;432672;1270;99243;-40
2022/09/11 04:39:03;;;;;;;11.80;9.60;;;;;;;13.98;83.08;98091.93;432162;1270;112334;-40
2022/09/11 04:59:20;;;;;;;11.20;9.00;;;;;;;14.06;83.34;98081.23;432838;1270;97994;-40
2022/09/11 05:09:28;;;;;;;12.90;8.30;;;;;;;14.06;83.26;98080.88;432541;1270;107964;-40
2022/09/11 05:19:35;;;;;;;12.60;8.40;;;;;;;14.08;83.40;98078.20;432548;1270;99259;-40
2022/09/11 05:29:42;;;;;;;8.80;7.80;;;;;;;14.14;83.66;98080.70;432418;1270;112560;-41
2022/09/11 05:39:50;;;;;;;7.70;6.90;;;;;;;14.21;83.58;98080.13;433012;1269;108422;-39
2022/09/11 05:49:58;;;;;;;10.10;8.90;;;;;;;14.37;83.79;98080.44;432925;1269;99241;-40
2022/09/11 06:00:07;;;;;;;9.60;8.40;;;;;;;14.45;83.67;98081.64;432021;1270;109703;-40
2022/09/11 06:10:14;;;;;;;9.30;8.40;;;;;;;14.57;83.76;98087.31;431973;1269;1695268;-40
2022/09/11 06:20:21;;;;;;;11.40;8.30;;;;;;;14.82;83.82;98091.20;432467;1268;112477;-40
2022/09/11 06:30:29;;;;;;;8.90;7.70;;;;;;;15.19;83.91;98096.95;433100;1270;108976;-41
2022/09/11 06:40:36;;;;;;;11.60;7.90;;;;;;;15.13;83.62;98104.80;432483;1270;98859;-40
2022/09/11 06:50:44;;;;;;;9.70;8.00;;;;;;;15.13;83.64;98105.59;433063;1269;109010;-40
2022/09/11 07:00:51;;;;;;;9.00;7.20;;;;;;;15.06;83.52;98109.71;432432;1270;99314;-40
2022/09/11 07:31:15;;;;;;;8.90;7.70;;;;;;;15.04;83.75;98112.87;433411;1269;99264;-41
2022/09/11 07:41:30;;;;;;;9.20;7.90;;;;;;;15.15;83.72;98113.33;433107;1270;109239;-40
2022/09/11 07:51:39;;;;;;;10.10;7.80;;;;;;;15.25;83.70;98116.36;432341;1270;99248;-40
2022/09/11 08:01:46;;;;;;;11.50;7.90;;;;;;;15.26;83.67;98121.85;432505;1270;112476;-45
2022/09/11 08:11:57;;;;;;;11.80;7.90;;;;;;;15.12;83.60;98130.90;433192;1269;108825;-41
2022/09/11 08:22:04;;;;;;;13.20;8.10;;;;;;;15.00;83.75;98131.63;432966;1270;97985;-41
2022/09/11 08:42:19;;;;;;;9.00;7.80;;;;;;;14.79;83.89;98135.77;433304;1270;99360;-41
2022/09/11 08:52:27;;;;;;;9.40;7.80;;;;;;;14.81;83.97;98141.66;432644;1270;113085;-42
2022/09/11 09:02:47;;;;;;;10.60;8.30;;;;;;;14.90;84.10;98142.77;432528;1270;108524;-41
2022/09/11 09:13:01;;;;;;;12.90;8.10;;;;;;;14.99;84.26;98149.30;433193;1270;98617;-41
2022/09/11 09:23:06;;;;;;;7.00;6.30;;;;;;;14.88;84.25;98152.13;433095;1269;108835;-41
2022/09/11 09:33:19;;;;;;;7.90;7.00;;;;;;;14.94;84.31;98152.61;432386;1270;99261;-41
2022/09/11 09:43:32;;;;;;;6.30;5.60;;;;;;;15.16;84.51;98150.06;433174;1270;111447;-41
2022/09/11 10:04:07;;;;;;;3.60;3.20;;;;;;;15.91;84.43;98148.64;433306;1270;99265;-40
2022/09/11 10:14:21;;;;;;;3.60;3.30;;;;;;;16.42;84.37;98149.52;433207;1270;108894;-41
2022/09/11 10:34:59;;;;;;;3.50;3.10;;;;;;;16.78;83.84;98149.79;432529;1270;112433;-41
2022/09/11 10:55:17;;;;;;;7.00;4.60;;;;;;;16.84;83.53;98140.23;433595;1270;99287;-41
2022/09/11 11:05:26;;;;;;;6.50;5.10;;;;;;;17.14;83.37;98136.71;433452;1270;107842;-40
2022/09/11 11:15:37;;;;;;;4.70;4.20;;;;;;;17.20;82.92;98137.72;432645;1270;99276;-40
2022/09/11 11:25:49;;;;;;;6.50;3.80;;;;;;;17.48;82.67;98142.56;432420;1270;111596;-40
2022/09/11 11:35:56;;;;;;;4.60;4.00;;;;;;;17.87;82.01;98141.67;433222;1270;108693;-41
2022/09/11 11:46:11;;;;;;;6.00;5.40;;;;;;;17.90;81.96;98139.28;432354;1270;99267;-41
2022/09/11 11:56:18;;;;;;;4.70;3.80;;;;;;;18.07;81.35;98137.80;433109;1270;109280;-39
2022/09/11 12:06:25;;;;;;;6.80;4.90;;;;;;;18.09;80.92;98140.83;433239;1269;97998;-40
2022/09/11 12:16:33;;;;;;;5.90;5.30;;;;;;;17.51;80.50;98137.94;432697;1270;112386;-40
2022/09/11 12:26:41;;;;;;;6.50;5.30;;;;;;;16.73;80.62;98147.95;432915;1270;109213;-40
2022/09/11 12:47:15;;;;;;;5.30;4.60;;;;;;;16.39;81.08;98164.71;432763;1270;108876;-40
2022/09/11 12:57:20;;;;;;;6.00;4.50;;;;;;;16.12;81.24;98174.45;433267;1270;97944;-40
2022/09/11 13:07:31;;;;;;;4.90;3.90;;;;;;;15.86;81.66;98177.95;432836;1270;112539;-40
2022/09/11 13:17:41;;;;;;;5.80;5.00;;;;;;;15.47;81.69;98193.98;432442;1270;108830;-40
2022/09/11 13:27:49;;;;;;;5.20;4.70;;;;;;;15.09;81.95;98197.58;433246;1269;99218;-40
2022/09/11 13:37:59;;;;;;;5.40;4.90;;;;;;;15.22;82.08;98197.02;433207;1270;108830;-41
2022/09/11 13:58:21;;;;;;;7.30;6.20;;;;;;;15.54;82.27;98190.43;433004;1269;110708;-42
2022/09/11 14:08:27;;;;;;;8.80;5.60;;;;;;;15.74;82.10;98189.32;432573;1270;108282;-40
2022/09/11 14:18:40;;;;;;;8.10;5.10;;;;;;;16.04;81.80;98189.54;433148;1269;100011;-41
2022/09/11 14:39:26;;;;;;;6.80;6.20;;;;;;;16.23;81.50;98199.45;433203;1270;99231;-41
2022/09/11 14:49:33;;;;;;;6.90;5.40;;;;;;;16.12;80.96;98194.02;432344;1270;112550;-40
2022/09/11 14:59:41;;;;;;;5.90;5.30;;;;;;;16.01;80.87;98200.80;433171;1270;109618;-40
2022/09/11 15:09:49;;;;;;;5.60;4.90;;;;;;;15.91;81.05;98198.41;432419;1270;98025;-40
2022/09/11 15:19:59;;;;;;;9.00;5.80;;;;;;;15.72;80.86;98193.91;432993;1270;109019;-39
2022/09/11 15:30:08;;;;;;;6.00;5.10;;;;;;;15.50;80.94;98205.90;433519;1270;98729;-39
2022/09/11 15:40:16;;;;;;;3.80;3.20;;;;;;;15.45;80.98;98215.71;433236;1271;112608;-39
2022/09/11 15:50:27;;;;;;;5.70;3.70;;;;;;;15.30;80.79;98228.11;433355;1270;108930;-41
2022/09/11 16:10:42;;;;;;;3.40;3.10;;;;;;;15.03;80.71;98239.28;433212;1270;108765;-39
2022/09/11 16:20:56;;;;;;;4.40;3.00;;;;;;;15.02;80.74;98242.38;433247;1270;98869;-40
2022/09/11 16:31:05;;;;;;;5.40;4.20;;;;;;;14.92;80.91;98252.51;433116;1270;112483;-40
2022/09/11 16:41:15;;;;;;;4.00;3.30;;;;;;;14.85;80.93;98254.73;432581;1270;109232;-40
2022/09/11 16:51:23;;;;;;;6.20;4.50;;;;;;;14.73;81.13;98262.66;433300;1270;98867;-40
2022/09/11 17:01:31;;;;;;;4.90;3.80;;;;;;;14.57;81.07;98270.58;433149;1270;108802;-40
2022/09/11 17:11:38;;;;;;;5.90;4.80;;;;;;;14.45;81.16;98273.73;432273;1270;98847;-40
2022/09/11 17:31:52;;;;;;;5.50;3.70;;;;;;;14.24;81.18;98279.61;432589;1270;108682;-40
2022/09/11 17:42:18;;;;;;;7.90;5.10;;;;;;;14.10;81.34;98297.11;433153;1270;98819;-40
2022/09/11 17:52:25;;;;;;;4.20;3.60;;;;;;;13.94;81.32;98311.25;432907;1270;108862;-40
2022/09/11 18:02:33;;;;;;;6.50;5.30;;;;;;;13.78;81.50;98311.80;432567;1270;98033;-40
2022/09/11 18:12:41;;;;;;;5.80;4.90;;;;;;;13.67;81.50;98318.05;431452;1269;1996869;-41
2022/09/11 18:22:49;;;;;;;7.40;5.20;;;;;;;13.52;81.48;98329.60;432271;1270;108917;-40
2022/09/11 18:32:56;;;;;;;7.40;5.00;;;;;;;13.40;81.68;98333.88;432550;1270;99259;-41
2022/09/11 18:43:05;;;;;;;8.60;6.30;;;;;;;13.29;81.82;98338.05;432516;1270;107973;-41
2022/09/11 18:53:13;;;;;;;12.40;6.10;;;;;;;13.18;81.86;98344.85;432719;1268;99235;-41
2022/09/11 19:03:21;;;;;;;6.30;4.80;;;;;;;13.09;81.87;98347.36;432642;1271;112415;-41
2022/09/11 19:13:29;;;;;;;9.90;5.40;;;;;;;13.02;81.98;98343.42;432600;1271;109044;-41
2022/09/11 19:23:39;;;;;;;6.20;5.00;;;;;;;12.87;82.05;98351.09;432429;1271;99260;-41
2022/09/11 19:33:47;;;;;;;7.60;5.20;;;;;;;12.70;82.05;98356.05;432661;1271;108768;-41
2022/09/11 19:43:57;;;;;;;7.40;5.20;;;;;;;12.54;82.15;98356.53;432898;1271;99344;-41
2022/09/11 19:54:04;;;;;;;8.00;5.00;;;;;;;12.47;82.29;98370.88;432494;1271;112424;-40
2022/09/11 20:04:12;;;;;;;6.90;4.90;;;;;;;12.47;82.47;98375.12;432604;1270;108916;-41
2022/09/11 20:14:19;;;;;;;6.90;5.30;;;;;;;12.42;82.50;98375.06;432620;1271;97966;-41
2022/09/11 20:24:27;;;;;;;6.50;5.80;;;;;;;12.31;82.54;98372.91;432481;1271;108838;-41
2022/09/11 20:34:34;;;;;;;8.60;5.60;;;;;;;12.25;82.76;98370.23;432457;1271;98004;-41
2022/09/11 20:44:44;;;;;;;7.10;5.30;;;;;;;12.26;82.89;98374.59;432328;1271;111473;-41
2022/09/11 20:54:49;;;;;;;;;;;;;;;12.30;82.97;98378.30;432590;1271;109046;-42
2022/09/11 21:04:57;;;;;;;7.80;5.90;;;;;;;12.26;83.09;98374.86;432355;1270;99269;-41
2022/09/11 21:15:09;;;;;;;8.80;6.60;;;;;;;12.24;83.26;98373.40;432544;1270;108823;-41
2022/09/11 21:25:16;;;;;;;8.30;5.70;;;;;;;12.21;83.38;98378.04;432693;1270;97952;-41
2022/09/11 21:35:23;;;;;;;7.40;6.10;;;;;;;12.19;83.51;98380.08;432353;1270;112377;-41
2022/09/11 21:45:31;;;;;;;9.20;6.40;;;;;;;12.16;83.63;98381.11;432198;1270;108066;-39
2022/09/11 21:55:36;;;;;;;10.90;6.90;;;;;;;12.12;83.72;98385.36;432320;1270;99396;-39
2022/09/11 22:05:47;;;;;;;9.60;7.70;;;;;;;12.10;83.78;98383.26;432132;1270;108910;-39
2022/09/11 22:15:55;;;;;;;8.30;6.50;;;;;;;12.05;83.88;98378.94;432677;1271;99251;-39
2022/09/11 22:26:06;;;;;;;9.40;7.00;;;;;;;11.99;84.03;98375.68;432528;1270;112521;-39
2022/09/11 22:36:16;;;;;;;12.00;7.60;;;;;;;11.94;84.12;98383.30;432257;1270;108854;-40
2022/09/11 22:46:25;;;;;;;10.20;7.00;;;;;;;11.88;84.12;98390.27;432469;1270;99259;-40
2022/09/11 22:56:33;;;;;;;10.40;6.80;;;;;;;11.78;84.17;98396.77;432576;1270;108960;-40
2022/09/11 23:17:05;;;;;;;8.20;7.00;;;;;;;11.63;84.26;98397.23;432638;1270;112465;-40
2022/09/11 23:27:13;;;;;;;9.00;7.00;;;;;;;11.56;84.35;98402.52;432393;1270;109494;-40
2022/09/11 23:37:21;;;;;;;11.20;7.10;;;;;;;11.51;84.34;98409.42;432346;1270;98870;-41
2022/09/11 23:47:27;;;;;;;13.40;6.40;;;;;;;11.46;84.47;98416.18;432386;1271;109054;-40
2022/09/11 23:57:35;;;;;;;8.60;6.20;;;;;;;11.39;84.37;98421.53;432755;1270;99791;-40
